createdAt,value
2023-04-11T00:02:01.011Z,14.90
2023-04-11T00:04:27.466Z,14.97
2023-04-11T00:06:53.923Z,14.94
2023-04-11T00:09:20.277Z,14.89
2023-04-11T00:11:46.665Z,14.87
2023-04-11T00:14:13.044Z,14.84
2023-04-11T00:16:39.432Z,14.86
2023-04-11T00:19:05.843Z,14.87
2023-04-11T00:21:32.202Z,14.91
2023-04-11T00:23:58.543Z,14.94
2023-04-11T00:26:24.876Z,14.89
2023-04-11T00:28:51.228Z,14.91
2023-04-11T00:31:17.634Z,14.92
2023-04-11T00:33:43.998Z,14.90
2023-04-11T00:36:10.415Z,14.83
2023-04-11T00:38:36.850Z,14.80
2023-04-11T00:41:03.205Z,14.88
2023-04-11T00:43:29.619Z,14.92
2023-04-11T00:45:56.028Z,14.91
2023-04-11T00:48:22.393Z,14.91
2023-04-11T00:50:48.762Z,14.89
2023-04-11T00:53:15.111Z,14.89
2023-04-11T00:55:41.491Z,14.83
2023-04-11T00:58:07.860Z,14.89
2023-04-11T01:00:34.237Z,14.90
2023-04-11T01:03:00.748Z,14.92
2023-04-11T01:05:27.182Z,14.96
2023-04-11T01:07:53.546Z,14.89
2023-04-11T01:10:19.910Z,14.91
2023-04-11T01:12:46.300Z,14.92
2023-04-11T01:15:12.698Z,14.91
2023-04-11T01:17:39.068Z,14.97
2023-04-11T01:20:05.485Z,15.01
2023-04-11T01:22:31.828Z,14.91
2023-04-11T01:24:58.215Z,14.90
2023-04-11T01:27:24.598Z,14.80
2023-04-11T01:29:51.025Z,14.98
2023-04-11T01:32:17.446Z,14.97
2023-04-11T01:34:43.868Z,14.97
2023-04-11T01:37:10.256Z,15.03
2023-04-11T01:39:36.594Z,15.05
2023-04-11T01:42:02.971Z,15.00
2023-04-11T01:44:29.377Z,15.08
2023-04-11T01:46:55.761Z,14.89
2023-04-11T01:49:22.145Z,14.94
2023-04-11T01:51:48.553Z,14.94
2023-04-11T01:54:14.901Z,14.92
2023-04-11T01:56:41.237Z,14.92
2023-04-11T01:59:08.728Z,15.01
2023-04-11T02:01:35.088Z,15.11
2023-04-11T02:04:01.619Z,15.12
2023-04-11T02:06:28.133Z,15.05
2023-04-11T02:08:54.789Z,15.00
2023-04-11T02:11:21.477Z,14.90
2023-04-11T02:13:47.827Z,14.85
2023-04-11T02:16:14.345Z,14.85
2023-04-11T02:18:40.739Z,14.85
2023-04-11T02:21:07.102Z,14.81
2023-04-11T02:23:33.475Z,14.86
2023-04-11T02:25:59.839Z,14.88
2023-04-11T02:28:26.220Z,14.83
2023-04-11T02:30:52.640Z,14.93
2023-04-11T02:33:19.079Z,14.91
2023-04-11T02:35:45.486Z,14.91
2023-04-11T02:38:11.874Z,14.93
2023-04-11T02:40:38.237Z,14.85
2023-04-11T02:43:04.699Z,14.88
2023-04-11T02:45:31.104Z,14.95
2023-04-11T02:47:57.551Z,14.95
2023-04-11T02:50:23.976Z,14.94
2023-04-11T02:52:50.340Z,14.81
2023-04-11T02:55:16.706Z,14.78
2023-04-11T02:57:43.096Z,14.75
2023-04-11T03:00:09.486Z,14.80
2023-04-11T03:02:35.920Z,14.77
2023-04-11T03:05:02.354Z,14.67
2023-04-11T03:07:28.753Z,14.63
2023-04-11T03:09:55.120Z,14.67
2023-04-11T03:12:21.458Z,14.67
2023-04-11T03:14:47.846Z,14.61
2023-04-11T03:17:14.184Z,14.57
2023-04-11T03:19:40.528Z,14.56
2023-04-11T03:22:06.867Z,14.51
2023-04-11T03:24:33.199Z,14.54
2023-04-11T03:26:59.573Z,14.54
2023-04-11T03:29:25.921Z,14.55
2023-04-11T03:31:52.309Z,14.55
2023-04-11T03:34:18.658Z,14.53
2023-04-11T03:36:45.033Z,14.49
2023-04-11T03:39:11.412Z,14.47
2023-04-11T03:41:37.824Z,14.45
2023-04-11T03:44:04.157Z,14.46
2023-04-11T03:46:30.604Z,14.46
2023-04-11T03:48:57.289Z,14.44
2023-04-11T03:51:23.839Z,14.45
2023-04-11T03:53:50.215Z,14.44
2023-04-11T03:56:16.593Z,14.47
2023-04-11T03:58:42.994Z,14.50
2023-04-11T04:01:09.343Z,14.48
2023-04-11T04:03:35.860Z,14.43
2023-04-11T04:06:02.288Z,14.46
2023-04-11T04:08:28.733Z,14.45
2023-04-11T04:10:55.080Z,14.43
2023-04-11T04:13:21.491Z,14.42
2023-04-11T04:15:47.881Z,14.45
2023-04-11T04:18:14.234Z,14.38
2023-04-11T04:20:40.572Z,14.42
2023-04-11T04:23:06.919Z,14.39
2023-04-11T04:25:33.284Z,14.34
2023-04-11T04:27:59.669Z,14.35
2023-04-11T04:30:26.019Z,14.31
2023-04-11T04:32:52.380Z,14.35
2023-04-11T04:35:18.781Z,14.30
2023-04-11T04:37:45.132Z,14.28
2023-04-11T04:40:11.471Z,14.23
2023-04-11T04:42:37.882Z,14.17
2023-04-11T04:45:04.223Z,14.13
2023-04-11T04:47:30.630Z,14.09
2023-04-11T04:49:57.057Z,14.06
2023-04-11T04:52:23.399Z,13.96
2023-04-11T04:54:49.756Z,13.87
2023-04-11T04:57:16.090Z,13.91
2023-04-11T04:59:42.469Z,13.77
2023-04-11T05:02:08.928Z,13.77
2023-04-11T05:04:35.377Z,13.79
2023-04-11T05:07:01.772Z,13.78
2023-04-11T05:09:28.162Z,13.73
2023-04-11T05:11:54.569Z,13.71
2023-04-11T05:14:20.905Z,13.72
2023-04-11T05:16:47.274Z,13.64
2023-04-11T05:19:13.628Z,13.60
2023-04-11T05:21:40.038Z,13.64
2023-04-11T05:24:06.394Z,13.53
2023-04-11T05:26:32.754Z,13.54
2023-04-11T05:28:59.148Z,13.45
2023-04-11T05:31:25.498Z,13.45
2023-04-11T05:33:51.840Z,13.40
2023-04-11T05:36:18.268Z,13.38
2023-04-11T05:38:44.665Z,13.40
2023-04-11T05:41:11.053Z,13.43
2023-04-11T05:43:37.420Z,13.52
2023-04-11T05:46:03.816Z,13.59
2023-04-11T05:48:30.202Z,13.63
2023-04-11T05:50:56.585Z,13.64
2023-04-11T05:53:22.982Z,13.69
2023-04-11T05:55:49.370Z,13.63
2023-04-11T05:58:15.722Z,13.71
2023-04-11T06:00:42.129Z,13.71
2023-04-11T06:03:08.682Z,13.75
2023-04-11T06:05:35.078Z,13.72
2023-04-11T06:08:01.425Z,13.78
2023-04-11T06:10:27.782Z,13.85
2023-04-11T06:12:54.125Z,13.86
2023-04-11T06:15:20.505Z,13.88
2023-04-11T06:17:47.007Z,13.85
2023-04-11T06:20:16.224Z,13.80
2023-04-11T06:22:42.615Z,13.70
2023-04-11T06:25:08.994Z,13.62
2023-04-11T06:27:35.388Z,13.57
2023-04-11T06:30:01.757Z,13.61
2023-04-11T06:32:28.158Z,13.57
2023-04-11T06:34:54.519Z,13.52
2023-04-11T06:37:20.848Z,13.53
2023-04-11T06:39:47.183Z,13.55
2023-04-11T06:42:13.581Z,13.51
2023-04-11T06:44:40.013Z,13.64
2023-04-11T06:47:06.423Z,13.70
2023-04-11T06:49:32.758Z,13.66
2023-04-11T06:51:59.125Z,13.71
2023-04-11T06:54:25.517Z,13.74
2023-04-11T06:56:51.876Z,13.73
2023-04-11T06:59:18.207Z,13.77
2023-04-11T07:01:44.624Z,13.78
2023-04-11T07:04:11.234Z,13.83
2023-04-11T07:06:37.715Z,13.80
2023-04-11T07:09:04.094Z,13.80
2023-04-11T07:11:30.429Z,13.80
2023-04-11T07:13:57.094Z,13.84
2023-04-11T07:16:23.584Z,13.88
2023-04-11T07:18:49.971Z,13.84
2023-04-11T07:21:16.332Z,13.78
2023-04-11T07:23:42.716Z,13.81
2023-04-11T07:26:09.109Z,13.78
2023-04-11T07:28:35.457Z,13.81
2023-04-11T07:31:01.815Z,13.89
2023-04-11T07:33:28.187Z,13.85
2023-04-11T07:35:54.583Z,13.86
2023-04-11T07:38:21.001Z,13.91
2023-04-11T07:40:47.391Z,13.81
2023-04-11T07:43:13.736Z,13.86
2023-04-11T07:45:40.247Z,13.90
2023-04-11T07:48:06.717Z,13.86
2023-04-11T07:50:33.134Z,13.91
2023-04-11T07:52:59.521Z,13.94
2023-04-11T07:55:25.916Z,14.01
2023-04-11T07:57:52.264Z,13.99
2023-04-11T08:00:18.610Z,14.11
2023-04-11T08:02:45.172Z,14.14
2023-04-11T08:05:11.674Z,14.24
2023-04-11T08:07:38.156Z,14.31
2023-04-11T08:10:04.547Z,14.35
2023-04-11T08:12:30.950Z,14.39
2023-04-11T08:14:57.305Z,14.42
2023-04-11T08:17:28.331Z,14.49
2023-04-11T08:19:55.385Z,14.61
2023-04-11T08:22:21.755Z,14.65
2023-04-11T08:24:48.305Z,14.67
2023-04-11T08:27:14.661Z,14.70
2023-04-11T08:29:40.999Z,14.79
2023-04-11T08:32:07.356Z,14.86
2023-04-11T08:34:33.734Z,14.87
2023-04-11T08:37:00.116Z,14.83
2023-04-11T08:39:26.460Z,14.88
2023-04-11T08:41:52.832Z,14.97
2023-04-11T08:44:19.176Z,15.06
2023-04-11T08:46:45.594Z,15.15
2023-04-11T08:49:11.936Z,15.22
2023-04-11T08:51:38.352Z,15.31
2023-04-11T08:54:04.727Z,15.32
2023-04-11T08:56:31.274Z,15.31
2023-04-11T08:58:57.669Z,15.34
2023-04-11T09:01:24.100Z,15.29
2023-04-11T09:03:50.477Z,15.21
2023-04-11T09:06:16.818Z,15.19
2023-04-11T09:08:43.222Z,15.27
2023-04-11T09:11:09.563Z,15.42
2023-04-11T09:13:35.937Z,15.51
2023-04-11T09:16:02.315Z,15.53
2023-04-11T09:18:28.657Z,15.57
2023-04-11T09:20:54.999Z,15.74
2023-04-11T09:23:21.334Z,15.80
2023-04-11T09:25:47.868Z,15.97
2023-04-11T09:28:14.221Z,15.98
2023-04-11T09:30:40.560Z,16.14
2023-04-11T09:33:06.944Z,16.14
2023-04-11T09:35:33.310Z,16.25
2023-04-11T09:37:59.697Z,16.21
2023-04-11T09:40:26.101Z,16.09
2023-04-11T09:42:52.493Z,16.12
2023-04-11T09:45:18.862Z,16.34
2023-04-11T09:47:45.221Z,16.25
2023-04-11T09:50:11.613Z,16.34
2023-04-11T09:52:37.981Z,16.43
2023-04-11T09:55:04.446Z,16.60
2023-04-11T09:57:30.867Z,16.75
2023-04-11T09:59:57.216Z,16.90
2023-04-11T10:02:23.650Z,16.95
2023-04-11T10:04:50.147Z,16.84
2023-04-11T10:07:16.546Z,16.82
2023-04-11T10:09:42.907Z,16.67
2023-04-11T10:12:09.247Z,16.64
2023-04-11T10:14:35.641Z,16.50
2023-04-11T10:17:02.035Z,16.46
2023-04-11T10:19:28.402Z,16.41
2023-04-11T10:21:54.778Z,16.30
2023-04-11T10:24:21.179Z,16.14
2023-04-11T10:26:47.569Z,16.04
2023-04-11T10:29:14.024Z,15.92
2023-04-11T10:31:40.612Z,15.85
2023-04-11T10:34:07.101Z,15.81
2023-04-11T10:36:33.487Z,15.71
2023-04-11T10:38:59.881Z,15.75
2023-04-11T10:41:26.227Z,15.74
2023-04-11T10:43:52.558Z,15.70
2023-04-11T10:46:18.959Z,15.85
2023-04-11T10:48:45.365Z,15.83
2023-04-11T10:51:11.749Z,15.82
2023-04-11T10:53:38.130Z,15.77
2023-04-11T10:56:04.534Z,15.75
2023-04-11T10:58:30.933Z,15.75
2023-04-11T11:00:57.311Z,15.79
2023-04-11T11:03:23.820Z,15.86
2023-04-11T11:05:50.293Z,15.89
2023-04-11T11:08:16.672Z,15.97
2023-04-11T11:10:43.026Z,16.02
2023-04-11T11:13:09.367Z,16.01
2023-04-11T11:15:35.769Z,16.00
2023-04-11T11:18:02.197Z,16.04
2023-04-11T11:20:28.594Z,16.03
2023-04-11T11:22:55.029Z,16.18
2023-04-11T11:25:21.416Z,16.23
2023-04-11T11:27:47.775Z,16.28
2023-04-11T11:30:14.156Z,16.39
2023-04-11T11:32:40.588Z,16.47
2023-04-11T11:35:06.997Z,16.48
2023-04-11T11:37:33.352Z,16.42
2023-04-11T11:39:59.742Z,16.15
2023-04-11T11:42:26.130Z,16.14
2023-04-11T11:44:52.469Z,16.12
2023-04-11T11:47:18.848Z,15.96
2023-04-11T11:49:45.276Z,15.73
2023-04-11T11:52:11.676Z,15.76
2023-04-11T11:54:38.057Z,15.77
2023-04-11T11:57:04.461Z,15.76
2023-04-11T11:59:30.814Z,15.81
2023-04-11T12:01:57.205Z,15.87
2023-04-11T12:04:23.808Z,15.91
2023-04-11T12:06:50.253Z,15.92
2023-04-11T12:09:16.625Z,15.87
2023-04-11T12:11:43.008Z,15.88
2023-04-11T12:14:09.388Z,15.98
2023-04-11T12:16:35.840Z,16.00
2023-04-11T12:19:02.263Z,16.01
2023-04-11T12:21:28.633Z,16.12
2023-04-11T12:23:55.221Z,16.13
2023-04-11T12:26:21.802Z,16.28
2023-04-11T12:28:48.161Z,16.34
2023-04-11T12:31:14.625Z,16.55
2023-04-11T12:33:41.139Z,16.65
2023-04-11T12:36:07.679Z,16.71
2023-04-11T12:38:34.051Z,16.60
2023-04-11T12:41:26.208Z,16.75
2023-04-11T12:43:46.773Z,16.94
2023-04-11T12:46:13.238Z,16.98
2023-04-11T12:48:39.745Z,16.97
2023-04-11T12:51:06.118Z,17.05
2023-04-11T12:53:32.491Z,17.18
2023-04-11T12:55:58.872Z,17.37
2023-04-11T12:58:25.264Z,17.26
2023-04-11T13:00:51.638Z,17.27
2023-04-11T13:03:18.088Z,17.40
2023-04-11T13:05:44.545Z,17.24
2023-04-11T13:08:11.027Z,17.24
2023-04-11T13:10:37.400Z,17.41
2023-04-11T13:13:17.028Z,17.43
2023-04-11T13:15:44.628Z,17.40
2023-04-11T13:18:11.009Z,17.50
2023-04-11T13:20:37.438Z,17.45
2023-04-11T13:23:03.796Z,17.61
2023-04-11T13:25:30.169Z,17.57
2023-04-11T13:27:56.532Z,17.58
2023-04-11T13:30:22.903Z,17.51
2023-04-11T13:32:52.296Z,17.61
2023-04-11T13:35:18.742Z,17.65
2023-04-11T13:37:45.114Z,17.65
2023-04-11T13:40:11.517Z,17.49
2023-04-11T13:42:37.949Z,17.57
2023-04-11T13:45:04.303Z,17.57
2023-04-11T13:47:30.725Z,17.60
2023-04-11T13:49:57.138Z,17.65
2023-04-11T13:52:23.690Z,17.56
2023-04-11T13:54:50.080Z,17.29
2023-04-11T13:57:16.402Z,17.16
2023-04-11T13:59:42.773Z,16.95
2023-04-11T14:02:09.195Z,16.86
2023-04-11T14:04:35.716Z,16.93
2023-04-11T14:07:02.168Z,16.98
2023-04-11T14:09:28.570Z,17.02
2023-04-11T14:11:55.028Z,17.04
2023-04-11T14:14:21.452Z,17.14
2023-04-11T14:16:47.876Z,17.18
2023-04-11T14:19:14.252Z,17.21
2023-04-11T14:21:40.714Z,17.25
2023-04-11T14:24:07.106Z,17.07
2023-04-11T14:26:33.506Z,17.09
2023-04-11T14:28:59.918Z,17.23
2023-04-11T14:31:26.427Z,17.25
2023-04-11T14:33:52.889Z,17.39
2023-04-11T14:36:19.260Z,17.49
2023-04-11T14:38:45.633Z,17.46
2023-04-11T14:41:11.993Z,17.51
2023-04-11T14:43:38.360Z,17.63
2023-04-11T14:46:04.725Z,17.61
2023-04-11T14:48:31.095Z,17.69
2023-04-11T14:50:57.450Z,17.87
2023-04-11T14:53:23.845Z,17.99
2023-04-11T14:55:50.273Z,18.10
2023-04-11T14:58:16.642Z,18.17
2023-04-11T15:00:43.030Z,18.16
2023-04-11T15:03:09.577Z,18.03
2023-04-11T15:05:36.005Z,18.08
2023-04-11T15:08:02.388Z,18.04
2023-04-11T15:10:28.750Z,18.06
2023-04-11T15:12:55.131Z,18.17
2023-04-11T15:15:21.500Z,18.27
2023-04-11T15:17:47.920Z,18.30
2023-04-11T15:20:14.346Z,18.16
2023-04-11T15:22:41.532Z,18.12
2023-04-11T15:25:08.136Z,18.03
2023-04-11T15:27:34.541Z,18.05
2023-04-11T15:30:00.980Z,18.05
2023-04-11T15:32:27.413Z,18.04
2023-04-11T15:34:53.817Z,18.08
2023-04-11T15:37:20.185Z,18.07
2023-04-11T15:39:46.572Z,18.03
2023-04-11T15:42:13.503Z,17.90
2023-04-11T15:44:40.009Z,17.81
2023-04-11T15:47:06.480Z,17.82
2023-04-11T15:49:32.933Z,17.74
2023-04-11T15:51:59.346Z,17.59
2023-04-11T15:54:25.696Z,17.62
2023-04-11T15:56:52.054Z,17.54
2023-04-11T15:59:18.400Z,17.52
2023-04-11T16:01:44.940Z,17.50
2023-04-11T16:04:11.432Z,17.44
2023-04-11T16:06:37.892Z,17.35
2023-04-11T16:09:04.240Z,17.33
2023-04-11T16:11:30.582Z,17.36
2023-04-11T16:13:57.518Z,17.39
2023-04-11T16:16:24.194Z,17.41
2023-04-11T16:18:50.640Z,17.40
2023-04-11T16:21:16.986Z,17.48
2023-04-11T16:23:43.504Z,17.47
2023-04-11T16:26:09.964Z,17.49
2023-04-11T16:28:36.368Z,17.43
2023-04-11T16:31:02.713Z,17.40
2023-04-11T16:33:29.094Z,17.36
2023-04-11T16:35:55.528Z,17.31
2023-04-11T16:38:21.883Z,17.19
2023-04-11T16:40:48.277Z,17.13
2023-04-11T16:43:14.748Z,17.05
2023-04-11T16:45:41.274Z,16.99
2023-04-11T16:48:07.736Z,16.89
2023-04-11T16:50:34.265Z,16.86
2023-04-11T16:53:00.673Z,16.79
2023-04-11T16:55:27.036Z,16.77
2023-04-11T16:57:53.417Z,16.71
2023-04-11T17:00:19.829Z,16.69
2023-04-11T17:02:46.323Z,16.62
2023-04-11T17:05:12.837Z,16.62
2023-04-11T17:07:39.242Z,16.60
2023-04-11T17:10:05.691Z,16.54
2023-04-11T17:12:32.097Z,16.47
2023-04-11T17:14:58.432Z,16.39
2023-04-11T17:17:24.828Z,16.36
2023-04-11T17:19:51.224Z,16.33
2023-04-11T17:22:17.698Z,16.26
2023-04-11T17:24:44.073Z,16.23
2023-04-11T17:27:10.474Z,16.23
2023-04-11T17:29:36.868Z,16.32
2023-04-11T17:32:03.260Z,16.37
2023-04-11T17:34:29.645Z,16.40
2023-04-11T17:36:56.025Z,16.33
2023-04-11T17:39:22.383Z,16.26
2023-04-11T17:41:48.722Z,16.22
2023-04-11T17:44:15.052Z,16.09
2023-04-11T17:46:41.544Z,15.98
2023-04-11T17:49:07.969Z,15.87
2023-04-11T17:51:34.388Z,15.89
2023-04-11T17:54:01.056Z,15.84
2023-04-11T17:59:11.701Z,15.85
2023-04-11T18:01:38.090Z,15.78
2023-04-11T18:04:04.655Z,15.67
2023-04-11T18:06:31.109Z,15.63
2023-04-11T18:08:57.509Z,15.59
2023-04-11T18:11:23.877Z,15.59
2023-04-11T18:13:54.004Z,15.51
2023-04-11T18:16:20.443Z,15.43
2023-04-11T18:18:46.810Z,15.33
2023-04-11T18:21:13.176Z,15.34
2023-04-11T18:23:39.516Z,15.29
2023-04-11T18:26:05.899Z,15.32
2023-04-11T18:28:32.308Z,15.61
2023-04-11T18:30:58.755Z,15.46
2023-04-11T18:33:25.143Z,15.33
2023-04-11T18:35:51.549Z,15.36
2023-04-11T18:38:18.012Z,15.36
2023-04-11T18:40:44.409Z,15.33
2023-04-11T18:43:10.783Z,15.20
2023-04-11T18:45:39.002Z,15.18
2023-04-11T18:48:06.072Z,15.21
2023-04-11T18:50:32.619Z,15.20
2023-04-11T18:53:04.841Z,15.22
2023-04-11T18:55:32.306Z,15.13
2023-04-11T18:58:00.793Z,15.05
2023-04-11T19:00:27.559Z,15.01
2023-04-11T19:02:54.186Z,15.02
2023-04-11T19:05:20.974Z,14.99
2023-04-11T19:07:47.567Z,15.01
2023-04-11T19:10:13.962Z,14.99
2023-04-11T19:12:40.596Z,14.90
2023-04-11T19:15:07.003Z,14.90
2023-04-11T19:17:33.364Z,14.79
2023-04-11T19:19:59.731Z,14.91
2023-04-11T19:22:26.099Z,15.12
2023-04-11T19:24:52.439Z,15.12
2023-04-11T19:27:18.815Z,15.06
2023-04-11T19:29:45.208Z,14.87
2023-04-11T19:32:11.654Z,14.69
2023-04-11T19:34:38.080Z,14.71
2023-04-11T19:37:04.435Z,14.62
2023-04-11T19:39:30.817Z,14.48
2023-04-11T19:41:57.173Z,14.49
2023-04-11T19:44:23.510Z,14.43
2023-04-11T19:46:49.880Z,14.43
2023-04-11T19:49:16.222Z,14.36
2023-04-11T19:51:42.592Z,14.37
2023-04-11T19:54:08.939Z,14.29
2023-04-11T19:56:35.317Z,14.32
2023-04-11T19:59:01.708Z,14.38
2023-04-11T20:01:28.109Z,14.42
2023-04-11T20:03:54.586Z,14.71
2023-04-11T20:06:21.007Z,14.82
2023-04-11T20:08:47.343Z,14.80
2023-04-11T20:11:13.692Z,14.61
2023-04-11T20:13:40.082Z,14.43
2023-04-11T20:16:06.423Z,14.19
2023-04-11T20:18:32.802Z,14.15
2023-04-11T20:20:59.153Z,14.16
2023-04-11T20:23:25.516Z,14.12
2023-04-11T20:25:51.902Z,13.99
2023-04-11T20:28:18.288Z,14.01
2023-04-11T20:30:44.696Z,13.99
2023-04-11T20:33:11.198Z,13.96
2023-04-11T20:35:37.634Z,13.97
2023-04-11T20:38:04.065Z,14.01
2023-04-11T20:40:30.445Z,14.09
2023-04-11T20:42:56.859Z,14.04
2023-04-11T20:45:23.248Z,13.93
2023-04-11T20:47:49.777Z,13.89
2023-04-11T20:50:16.294Z,13.89
2023-04-11T20:52:42.665Z,13.92
2023-04-11T20:55:09.026Z,13.94
2023-04-11T20:57:35.405Z,13.89
2023-04-11T21:00:01.778Z,13.97
2023-04-11T21:02:28.288Z,14.26
2023-04-11T21:04:54.766Z,14.24
2023-04-11T21:07:21.206Z,14.24
2023-04-11T21:09:47.539Z,14.27
2023-04-11T21:12:13.908Z,13.99
2023-04-11T21:14:40.259Z,13.92
2023-04-11T21:17:06.590Z,14.18
2023-04-11T21:19:32.973Z,14.32
2023-04-11T21:21:59.327Z,14.38
2023-04-11T21:24:25.710Z,14.38
2023-04-11T21:26:52.122Z,14.27
2023-04-11T21:29:18.476Z,14.25
2023-04-11T21:31:44.931Z,14.11
2023-04-11T21:34:11.347Z,13.92
2023-04-11T21:36:37.680Z,13.73
2023-04-11T21:39:04.065Z,13.74
2023-04-11T21:41:30.452Z,13.73
2023-04-11T21:43:57.051Z,13.96
2023-04-11T21:46:23.677Z,14.13
2023-04-11T21:48:51.519Z,14.20
2023-04-11T21:51:17.939Z,14.10
2023-04-11T21:53:44.296Z,13.97
2023-04-11T21:56:10.676Z,14.07
2023-04-11T21:58:37.017Z,14.13
2023-04-11T22:01:03.360Z,14.21
2023-04-11T22:03:29.915Z,14.27
2023-04-11T22:05:56.437Z,14.28
2023-04-11T22:08:22.901Z,14.26
2023-04-11T22:10:49.288Z,14.23
2023-04-11T22:13:15.641Z,14.29
2023-04-11T22:15:42.039Z,14.24
2023-04-11T22:18:08.465Z,14.06
2023-04-11T22:20:34.863Z,13.98
2023-04-11T22:23:01.215Z,14.09
2023-04-11T22:25:27.599Z,14.13
2023-04-11T22:27:53.972Z,14.19
2023-04-11T22:30:20.339Z,14.23
2023-04-11T22:32:46.763Z,14.08
2023-04-11T22:35:13.131Z,14.03
2023-04-11T22:37:39.517Z,13.92
2023-04-11T22:40:05.869Z,13.91
2023-04-11T22:42:32.241Z,13.87
2023-04-11T22:44:58.595Z,13.91
2023-04-11T22:47:24.946Z,13.96
2023-04-11T22:49:51.358Z,13.88
2023-04-11T22:52:17.746Z,13.79
2023-04-11T22:54:44.108Z,13.88
2023-04-11T22:57:10.510Z,14.10
2023-04-11T22:59:36.883Z,14.20
2023-04-11T23:02:03.359Z,14.21
2023-04-11T23:04:29.820Z,14.09
2023-04-11T23:06:56.187Z,13.96
2023-04-11T23:09:22.560Z,13.77
2023-04-11T23:11:49.014Z,13.61
2023-04-11T23:14:15.525Z,13.50
2023-04-11T23:16:42.001Z,13.50
2023-04-11T23:19:08.444Z,13.47
2023-04-11T23:21:34.843Z,13.43
2023-04-11T23:24:01.194Z,13.47
2023-04-11T23:26:27.565Z,13.51
2023-04-11T23:28:53.910Z,13.41
2023-04-11T23:31:20.346Z,13.39
2023-04-11T23:33:46.755Z,13.35
2023-04-11T23:36:13.191Z,13.38
2023-04-11T23:38:39.582Z,13.33
2023-04-11T23:41:06.117Z,13.25
2023-04-11T23:43:32.511Z,13.20
2023-04-11T23:45:58.950Z,13.11
2023-04-11T23:48:25.315Z,13.04
2023-04-11T23:50:51.713Z,13.08
2023-04-11T23:53:18.113Z,13.12
2023-04-11T23:55:44.480Z,13.00
2023-04-11T23:58:10.826Z,13.01
